Airfield :
LOGIN :

Register | Disclaimer

   EN    FR    IT 

 










Legend :    VFR   Marginal VFR   IFR   Intensive IFR   Very Intensive IFR
Visi :
Ceiling :
>= 8 km
>= 3000ft
5 to 8 km
1000 to 3000 ft
1500m to 5 km
500 to 1000 ft
800 to 1500m
200 to 500 ft
< 800m
< 200 ft
Symbols :   Thunderstorms  Fog  Heavy snow  Heavy precipitations  Wind > 20 kt
SIGMETs :     Misc.  Thunderstorms  Icing  Turbulence  Mountain Waves  Volcanic Ashes







- Airport Elevation : 2945 ft
- IATA code : RGS


LEBG - Burgos

EXPIRED METARs :
  • 241430Z 33004KT 9999 FEW038 28/06 Q1021
  • 241400Z 25007KT 220V300 9999 FEW038 28/05 Q1021
  • 241330Z 22005KT 160V270 9999 FEW035 27/06 Q1021
  • 241300Z 20003KT 9999 FEW032 26/09 Q1021
  • 241230Z 29004KT 9999 FEW032 26/09 Q1022
  • 241200Z 21003KT 9999 FEW032 25/11 Q1022

Expired Forecast.
No reported NOTAMs for that airfield.
1 SIGMET reported for the Madrid FIR (LECM) :
 
Embedded thunderstorms
LECM SIGMET 6 VALID 251700/252000 LEVA
LECM MADRID FIR/UIR EMBD TS OBS AT 1638Z E OF LINE N4240 W00440 - N3720 W00720 TOP FL340 MOV NE 30KT NC=



MET'MAP, your aeronautical weather chart ! - Copyright ORBIFLY December 2007 - Disclaimer

ORBIFLY MET'MAP TEAM :

Programming & Development : Alexandra Zaïnal
Concept & Development : Baudouin d'Aumeries
Co-Development & Prog : Marc-Olivier Méhu
Technical & hardware support : Manuel Goepfert

Contact : metmap@orbifly.com




SOURCES & CREDITS :

   NOAA